createdAt,value
2022-11-04T00:06:21.780Z,96508.59
2022-11-04T00:16:41.907Z,96515.81
2022-11-04T00:27:01.705Z,96507.66
2022-11-04T00:37:03.295Z,96536.50
2022-11-04T00:47:04.993Z,96556.47
2022-11-04T00:57:10.057Z,96573.16
2022-11-04T01:07:11.553Z,96608.09
2022-11-04T01:17:12.997Z,96621.69
2022-11-04T01:27:14.495Z,96619.41
2022-11-04T01:37:15.927Z,96624.19
2022-11-04T01:47:22.674Z,96612.84
2022-11-04T01:57:30.308Z,96622.19
2022-11-04T02:07:32.464Z,96610.69
2022-11-04T02:18:01.745Z,96617.56
2022-11-04T02:28:28.098Z,96609.22
2022-11-04T02:38:54.284Z,96604.84
2022-11-04T02:49:02.844Z,96613.88
2022-11-04T02:59:37.313Z,96617.28
2022-11-04T03:09:44.781Z,96611.75
2022-11-04T03:19:54.470Z,96603.19
2022-11-04T03:30:02.061Z,96621.69
2022-11-04T03:40:04.794Z,96618.56
2022-11-04T03:50:19.644Z,96607.91
2022-11-04T04:00:23.731Z,96614.03
2022-11-04T04:10:41.839Z,96615.34
2022-11-04T04:20:47.787Z,96620.94
2022-11-04T04:30:49.916Z,96606.88
2022-11-04T04:41:20.730Z,96586.50
2022-11-04T04:51:22.764Z,96607.41
2022-11-04T05:01:24.631Z,96588.31
2022-11-04T05:11:27.381Z,96584.91
2022-11-04T05:21:28.908Z,96593.25
2022-11-04T05:31:30.411Z,96620.56
2022-11-04T05:41:32.694Z,96649.16
2022-11-04T05:51:34.233Z,96664.22
2022-11-04T06:01:40.657Z,96653.16
2022-11-04T06:11:43.710Z,96662.88
2022-11-04T06:21:45.231Z,96658.19
2022-11-04T06:31:46.682Z,96652.13
2022-11-04T06:41:50.631Z,96670.00
2022-11-04T06:51:53.691Z,96655.47
2022-11-04T07:01:55.247Z,96647.88
2022-11-04T07:11:56.822Z,96647.56
2022-11-04T07:21:58.373Z,96655.53
2022-11-04T07:31:59.973Z,96629.28
2022-11-04T07:42:01.427Z,96658.41
2022-11-04T07:52:02.907Z,96666.59
2022-11-04T08:02:05.259Z,96722.59
2022-11-04T08:12:06.969Z,96724.81
2022-11-04T08:22:08.505Z,96720.41
2022-11-04T08:32:10.037Z,96744.28
2022-11-04T08:42:11.721Z,96734.94
2022-11-04T08:52:13.259Z,96716.75
2022-11-04T09:02:16.247Z,96686.19
2022-11-04T09:12:17.782Z,96675.44
2022-11-04T09:22:19.293Z,96672.66
2022-11-04T09:32:21.469Z,96678.75
2022-11-04T09:42:44.537Z,96669.38
2022-11-04T09:53:01.124Z,96656.94
2022-11-04T10:03:09.171Z,96664.84
2022-11-04T10:13:26.234Z,96664.63
2022-11-04T10:23:34.621Z,96680.97
2022-11-04T10:33:40.843Z,96660.94
2022-11-04T10:43:42.679Z,96646.59
2022-11-04T10:53:44.152Z,96643.44
2022-11-04T11:03:45.617Z,96640.38
2022-11-04T11:13:47.275Z,96622.53
2022-11-04T11:23:51.076Z,96604.56
2022-11-04T11:33:57.919Z,96594.78
2022-11-04T11:44:21.821Z,96597.78
2022-11-04T11:54:33.753Z,96618.75
2022-11-04T12:15:08.588Z,96639.97
2022-11-04T12:25:10.059Z,96651.38
2022-11-04T12:35:29.291Z,96630.53
2022-11-04T12:46:09.029Z,96631.81
2022-11-04T12:56:22.054Z,96637.53
2022-11-04T13:06:32.701Z,96635.69
2022-11-04T13:16:40.465Z,96632.91
2022-11-04T13:26:41.957Z,96644.06
2022-11-04T13:37:08.741Z,96675.44
2022-11-04T13:47:21.963Z,96679.94
2022-11-04T13:57:27.404Z,96670.16
2022-11-04T14:08:12.070Z,96677.81
2022-11-04T14:18:28.177Z,96673.97
2022-11-04T14:28:31.551Z,96687.34
2022-11-04T14:38:34.234Z,96687.84
2022-11-04T14:48:35.910Z,96693.06
2022-11-04T14:58:37.379Z,96699.06
2022-11-04T15:08:41.882Z,96706.97
2022-11-04T15:18:43.508Z,96708.44
2022-11-04T15:28:48.444Z,96712.59
2022-11-04T15:38:58.107Z,96726.75
2022-11-04T15:49:01.651Z,96736.56
2022-11-04T15:59:09.883Z,96742.00
2022-11-04T16:09:25.835Z,96746.31
2022-11-04T16:19:30.180Z,96742.72
2022-11-04T16:29:35.214Z,96742.81
2022-11-04T16:39:36.769Z,96757.72
2022-11-04T16:49:38.308Z,96762.28
2022-11-04T16:59:40.662Z,96777.72
2022-11-04T17:09:42.156Z,96786.06
2022-11-04T17:19:43.593Z,96782.91
2022-11-04T17:29:45.030Z,96789.94
2022-11-04T17:39:46.501Z,96805.41
2022-11-04T17:49:48.001Z,96814.81
2022-11-04T17:59:49.456Z,96828.47
2022-11-04T18:09:50.896Z,96841.97
2022-11-04T18:19:52.639Z,96855.19
2022-11-04T18:29:54.088Z,96858.97
2022-11-04T18:39:55.616Z,96861.88
2022-11-04T18:49:57.192Z,96880.41
2022-11-04T18:59:58.718Z,96902.38
2022-11-04T19:10:00.167Z,96915.28
2022-11-04T19:20:05.391Z,96927.88
2022-11-04T19:30:10.645Z,96938.41
2022-11-04T19:40:12.264Z,96956.16
2022-11-04T19:50:14.018Z,96969.09
2022-11-04T20:00:15.588Z,96990.00
2022-11-04T20:10:17.077Z,96993.44
2022-11-04T20:20:18.562Z,96988.75
2022-11-04T20:30:20.088Z,97007.53
2022-11-04T20:40:22.064Z,97028.16
2022-11-04T20:50:23.621Z,97042.44
2022-11-04T21:00:25.110Z,97059.84
2022-11-04T21:10:26.559Z,97066.16
2022-11-04T21:20:28.071Z,97083.06
2022-11-04T21:30:33.135Z,97106.81
2022-11-04T21:40:36.749Z,97107.59
2022-11-04T21:50:38.277Z,97103.91
2022-11-04T22:00:39.728Z,97088.81
2022-11-04T22:10:41.209Z,97102.31
2022-11-04T22:20:42.875Z,97098.09
2022-11-04T22:30:44.388Z,97099.66
2022-11-04T22:40:53.963Z,97105.22
2022-11-04T22:50:58.722Z,97109.94
2022-11-04T23:01:04.395Z,97096.22
2022-11-04T23:11:34.160Z,97097.56
2022-11-04T23:21:54.032Z,97110.47
2022-11-04T23:31:55.579Z,97116.56
2022-11-04T23:42:15.618Z,97123.16
2022-11-04T23:52:35.576Z,97139.00
